Time;durP1;ratioP1;P1;durP2;ratioP2;P2;SDS_P1;SDS_P2;PMS_P1;PMS_P2;Temp;Humidity;BMP_temperature;BMP_pressure;BME280_temperature;BME280_humidity;BME280_pressure;Samples;Min_cycle;Max_cycle;Signal;HPM_P1;HPM_P2
2022/08/16 00:00:38;;;;;;;3.78;3.40;;;17.80;98.40;;;;;;5034375;28;20182;-72
2022/08/16 00:03:05;;;;;;;4.95;3.17;;;17.90;98.60;;;;;;5034312;28;20206;-72
2022/08/16 00:05:31;;;;;;;3.55;3.25;;;17.90;98.80;;;;;;5034481;28;20632;-72
2022/08/16 00:07:57;;;;;;;7.55;3.70;;;17.90;99.10;;;;;;5034776;28;20661;-72
2022/08/16 00:10:25;;;;;;;5.25;3.80;;;17.90;99.10;;;;;;5034362;28;20171;-72
2022/08/16 00:12:51;;;;;;;3.88;3.47;;;17.90;99.30;;;;;;5034277;28;20194;-72
2022/08/16 00:15:24;;;;;;;4.30;3.70;;;17.90;99.30;;;;;;5034530;28;20642;-72
2022/08/16 00:17:50;;;;;;;4.18;3.78;;;17.90;99.10;;;;;;5034292;28;20189;-72
2022/08/16 00:20:16;;;;;;;5.18;3.88;;;17.90;99.60;;;;;;5034268;28;20217;-72
2022/08/16 00:22:43;;;;;;;3.63;3.33;;;17.80;99.90;;;;;;5033996;28;20211;-72
2022/08/16 00:25:13;;;;;;;3.88;3.40;;;17.70;99.90;;;;;;5034424;28;20185;-72
2022/08/16 00:27:39;;;;;;;4.43;3.50;;;17.60;99.90;;;;;;5034730;28;20270;-72
2022/08/16 00:30:09;;;;;;;8.52;3.67;;;17.60;99.90;;;;;;5034074;28;20179;-72
2022/08/16 00:32:36;;;;;;;6.45;3.42;;;17.50;99.90;;;;;;5034191;28;20294;-72
2022/08/16 00:35:02;;;;;;;3.83;3.33;;;17.60;99.90;;;;;;5034904;28;20179;-72
2022/08/16 00:37:28;;;;;;;3.72;3.35;;;17.50;99.90;;;;;;5034129;28;20183;-72
2022/08/16 00:39:53;;;;;;;5.55;3.83;;;17.50;99.90;;;;;;5034379;28;20186;-72
2022/08/16 00:42:20;;;;;;;5.60;4.10;;;17.50;99.90;;;;;;5033511;28;20214;-72
2022/08/16 00:44:52;;;;;;;4.07;3.72;;;17.50;99.90;;;;;;5034112;28;20218;-72
2022/08/16 00:47:18;;;;;;;5.82;3.90;;;17.50;99.90;;;;;;5033722;28;20179;-72
2022/08/16 00:49:44;;;;;;;8.32;4.07;;;17.40;99.90;;;;;;5033935;28;20175;-72
2022/08/16 00:52:10;;;;;;;6.03;4.15;;;17.30;99.90;;;;;;5033438;28;20317;-72
2022/08/16 00:54:36;;;;;;;5.57;3.55;;;17.20;99.90;;;;;;5033844;28;20229;-72
2022/08/16 00:57:02;;;;;;;4.47;3.88;;;17.10;99.90;;;;;;5034411;28;20533;-72
2022/08/16 00:59:31;;;;;;;6.00;3.83;;;17.10;99.90;;;;;;5033798;28;20174;-72
2022/08/16 01:01:57;;;;;;;4.78;3.60;;;16.90;99.90;;;;;;5034746;28;20211;-72
2022/08/16 01:04:26;;;;;;;5.93;3.95;;;16.80;99.90;;;;;;5034850;28;20269;-72
2022/08/16 01:06:52;;;;;;;4.35;3.95;;;16.80;99.90;;;;;;5033535;28;20170;-72
2022/08/16 01:09:18;;;;;;;7.05;4.40;;;16.70;99.90;;;;;;5033288;28;20203;-72
2022/08/16 01:11:44;;;;;;;4.40;3.90;;;16.80;99.90;;;;;;5034430;28;20336;-72
2022/08/16 01:14:20;;;;;;;6.05;4.13;;;16.90;99.90;;;;;;5033174;28;20193;-72
2022/08/16 01:16:47;;;;;;;5.30;3.97;;;16.90;99.90;;;;;;5034070;28;20189;-72
2022/08/16 01:19:38;;;;;;;4.63;3.85;;;16.90;99.90;;;;;;5033059;28;20289;-72
2022/08/16 01:22:07;;;;;;;6.13;4.20;;;17.00;99.90;;;;;;5034352;28;20222;-72
2022/08/16 01:24:38;;;;;;;4.65;4.10;;;17.00;99.90;;;;;;5033335;28;20175;-72
2022/08/16 01:27:12;;;;;;;4.40;4.00;;;17.00;99.90;;;;;;5034101;28;20174;-72
2022/08/16 01:29:44;;;;;;;7.95;4.13;;;16.90;99.90;;;;;;5034131;28;20612;-72
2022/08/16 01:32:10;;;;;;;3.90;3.60;;;16.90;99.90;;;;;;5034024;28;20202;-72
2022/08/16 01:34:35;;;;;;;6.43;4.15;;;16.90;99.90;;;;;;5032783;28;20190;-72
2022/08/16 01:37:06;;;;;;;5.80;4.10;;;16.80;99.90;;;;;;5034232;28;20654;-72
2022/08/16 01:39:32;;;;;;;4.60;4.18;;;16.80;99.90;;;;;;5034191;28;20242;-72
2022/08/16 01:41:58;;;;;;;8.90;4.10;;;16.80;99.90;;;;;;5032428;28;20306;-72
2022/08/16 01:44:24;;;;;;;5.07;4.38;;;16.70;99.90;;;;;;5033232;28;20262;-72
2022/08/16 01:46:52;;;;;;;5.10;4.65;;;16.60;99.90;;;;;;5032033;28;20613;-72
2022/08/16 01:49:26;;;;;;;5.32;4.00;;;16.60;99.90;;;;;;5032862;28;20266;-72
2022/08/16 01:51:59;;;;;;;4.35;3.88;;;16.60;99.90;;;;;;5032969;28;20248;-72
2022/08/16 01:54:25;;;;;;;4.35;3.83;;;16.60;99.90;;;;;;5034135;28;20253;-72
2022/08/16 01:56:51;;;;;;;7.18;4.22;;;16.70;99.90;;;;;;5032665;28;20266;-72
2022/08/16 01:59:17;;;;;;;7.05;4.07;;;16.70;99.90;;;;;;5033889;28;20257;-72
2022/08/16 02:01:49;;;;;;;4.68;4.10;;;16.70;99.90;;;;;;5033734;28;20214;-72
2022/08/16 02:04:16;;;;;;;5.05;3.88;;;16.80;99.90;;;;;;5033618;28;20186;-72
2022/08/16 02:06:42;;;;;;;5.15;4.07;;;16.70;99.90;;;;;;5033089;28;20182;-72
2022/08/16 02:09:10;;;;;;;4.25;3.95;;;16.70;99.90;;;;;;5032350;28;20630;-72
2022/08/16 02:11:36;;;;;;;5.05;4.03;;;16.70;99.90;;;;;;5033360;28;20183;-72
2022/08/16 02:14:02;;;;;;;4.43;3.63;;;16.70;99.90;;;;;;5032176;28;20182;-72
2022/08/16 02:16:28;;;;;;;5.40;4.05;;;16.70;99.90;;;;;;5033975;28;20266;-72
2022/08/16 02:18:53;;;;;;;4.07;3.67;;;16.70;99.90;;;;;;5032185;28;20321;-72
2022/08/16 02:21:20;;;;;;;7.25;4.30;;;16.70;99.90;;;;;;5032401;28;20654;-72
2022/08/16 02:23:46;;;;;;;6.28;4.15;;;16.60;99.90;;;;;;5032927;28;20203;-72
2022/08/16 02:26:12;;;;;;;5.10;3.90;;;16.60;99.90;;;;;;5032176;28;20201;-72
2022/08/16 02:28:37;;;;;;;5.07;4.20;;;16.60;99.90;;;;;;5032791;28;20186;-72
2022/08/16 02:31:07;;;;;;;5.05;4.00;;;16.50;99.90;;;;;;5032380;28;20170;-72
2022/08/16 02:33:32;;;;;;;5.28;4.10;;;16.40;99.90;;;;;;5031957;28;20203;-72
2022/08/16 02:35:58;;;;;;;4.72;4.30;;;16.30;99.90;;;;;;5032016;28;20182;-72
2022/08/16 02:38:25;;;;;;;8.10;4.28;;;16.30;99.90;;;;;;5032296;28;20552;-72
2022/08/16 02:40:51;;;;;;;5.90;4.18;;;16.30;99.90;;;;;;5032073;28;20182;-72
2022/08/16 02:43:17;;;;;;;5.85;4.10;;;16.20;99.90;;;;;;5032147;28;20232;-72
2022/08/16 02:45:42;;;;;;;6.15;3.78;;;16.20;99.90;;;;;;5031943;28;20175;-72
2022/08/16 02:48:08;;;;;;;5.05;4.03;;;16.10;99.90;;;;;;5032689;28;20174;-72
2022/08/16 02:50:33;;;;;;;5.57;4.05;;;16.10;99.90;;;;;;5033418;28;20634;-72
2022/08/16 02:53:00;;;;;;;4.53;4.13;;;16.20;99.90;;;;;;5031706;28;20214;-72
2022/08/16 02:55:25;;;;;;;6.10;4.13;;;16.20;99.90;;;;;;5031845;28;20580;-72
2022/08/16 02:57:51;;;;;;;4.95;3.70;;;16.20;99.90;;;;;;5035229;28;20236;-72
2022/08/16 03:00:17;;;;;;;4.40;4.00;;;16.20;99.90;;;;;;5036094;28;20178;-72
2022/08/16 03:02:44;;;;;;;5.25;3.80;;;16.30;99.90;;;;;;5036750;28;20708;-72
2022/08/16 03:05:12;;;;;;;4.90;3.90;;;16.30;99.90;;;;;;5035650;28;20218;-72
2022/08/16 03:07:39;;;;;;;6.88;4.57;;;16.30;99.90;;;;;;5036150;28;20179;-72
2022/08/16 03:10:07;;;;;;;5.50;4.25;;;16.30;99.90;;;;;;5035498;28;20265;-72
2022/08/16 03:12:32;;;;;;;4.75;4.35;;;16.30;99.90;;;;;;5036979;28;20277;-72
2022/08/16 03:14:58;;;;;;;4.55;4.15;;;16.30;99.90;;;;;;5035404;28;20280;-72
2022/08/16 03:17:25;;;;;;;5.15;4.00;;;16.30;99.90;;;;;;5035828;28;20309;-72
2022/08/16 03:19:52;;;;;;;5.13;3.90;;;16.30;99.90;;;;;;5035397;28;20597;-72
2022/08/16 03:22:19;;;;;;;4.75;4.00;;;16.20;99.90;;;;;;5035523;28;20700;-72
2022/08/16 03:24:45;;;;;;;5.22;4.55;;;16.20;99.90;;;;;;5036148;28;20175;-72
2022/08/16 03:27:11;;;;;;;7.22;3.78;;;16.10;99.90;;;;;;5035174;28;20522;-72
2022/08/16 03:29:36;;;;;;;6.50;4.40;;;16.10;99.90;;;;;;5035476;28;20221;-72
2022/08/16 03:32:02;;;;;;;5.18;4.18;;;16.00;99.90;;;;;;5035764;28;20203;-72
2022/08/16 03:34:29;;;;;;;4.32;3.92;;;15.90;99.90;;;;;;5035441;28;20209;-72
2022/08/16 03:36:55;;;;;;;4.53;4.07;;;15.90;99.90;;;;;;5035091;28;20182;-72
2022/08/16 03:39:22;;;;;;;6.25;4.30;;;15.90;99.90;;;;;;5035006;28;20175;-72
2022/08/16 03:41:48;;;;;;;5.03;4.13;;;16.00;99.90;;;;;;5034741;28;20301;-72
2022/08/16 03:44:15;;;;;;;4.20;3.80;;;16.10;99.90;;;;;;5035830;28;20171;-72
2022/08/16 03:46:42;;;;;;;4.70;4.28;;;16.00;99.90;;;;;;5035111;28;20179;-72
2022/08/16 03:49:10;;;;;;;4.60;3.97;;;16.00;99.90;;;;;;5034798;28;20182;-72
2022/08/16 03:51:35;;;;;;;4.05;3.67;;;16.00;99.90;;;;;;5034531;28;20194;-72
2022/08/16 03:54:01;;;;;;;6.13;3.97;;;15.90;99.90;;;;;;5034660;28;20181;-72
2022/08/16 03:56:27;;;;;;;4.40;3.80;;;15.90;99.90;;;;;;5034643;28;20179;-72
2022/08/16 03:58:55;;;;;;;5.15;3.90;;;15.80;99.90;;;;;;5034653;28;20186;-72
2022/08/16 04:01:22;;;;;;;4.07;3.60;;;15.70;99.90;;;;;;5035684;28;20175;-72
2022/08/16 04:03:48;;;;;;;5.90;4.10;;;15.70;99.90;;;;;;5034500;28;20277;-72
2022/08/16 04:06:14;;;;;;;7.28;3.80;;;15.70;99.90;;;;;;5036258;28;20552;-72
2022/08/16 04:08:40;;;;;;;4.25;3.90;;;15.60;99.90;;;;;;5033829;28;20202;-72
2022/08/16 04:11:05;;;;;;;5.28;4.03;;;15.70;99.90;;;;;;5034388;28;20181;-72
2022/08/16 04:13:31;;;;;;;4.80;3.70;;;15.60;99.90;;;;;;5035547;28;20199;-72
2022/08/16 04:15:58;;;;;;;4.10;3.72;;;15.60;99.90;;;;;;5034427;28;20183;-72
2022/08/16 04:18:24;;;;;;;6.10;3.90;;;15.70;99.90;;;;;;5036092;28;20174;-72
2022/08/16 04:20:50;;;;;;;5.90;3.67;;;15.70;99.90;;;;;;5034211;28;20185;-72
2022/08/16 04:23:16;;;;;;;10.35;4.18;;;15.70;99.90;;;;;;5034077;28;20309;-72
2022/08/16 04:25:42;;;;;;;4.43;3.70;;;15.70;99.90;;;;;;5034325;28;20175;-72
2022/08/16 04:28:08;;;;;;;6.00;4.07;;;15.70;99.90;;;;;;5035034;28;20178;-72
2022/08/16 04:30:33;;;;;;;5.43;3.60;;;15.80;99.90;;;;;;5035513;28;20193;-72
2022/08/16 04:32:59;;;;;;;3.88;3.50;;;15.80;99.90;;;;;;5034568;28;20209;-72
2022/08/16 04:35:25;;;;;;;5.35;3.90;;;15.80;99.90;;;;;;5034215;28;20229;-72
2022/08/16 04:37:51;;;;;;;6.47;4.00;;;15.80;99.90;;;;;;5035088;28;20217;-71
2022/08/16 04:40:19;;;;;;;6.03;3.78;;;15.90;99.90;;;;;;5033871;28;20179;-71
2022/08/16 04:42:44;;;;;;;8.63;4.07;;;16.00;99.90;;;;;;5034907;28;20211;-72
2022/08/16 04:45:12;;;;;;;7.85;3.88;;;15.90;99.90;;;;;;5034499;28;20179;-72
2022/08/16 04:47:39;;;;;;;7.88;3.80;;;16.00;99.90;;;;;;5033791;28;20179;-72
2022/08/16 04:50:08;;;;;;;3.80;3.35;;;16.10;99.90;;;;;;5035010;28;20163;-72
2022/08/16 04:52:35;;;;;;;4.18;3.78;;;16.10;99.90;;;;;;5033819;28;20578;-72
2022/08/16 04:55:03;;;;;;;5.97;3.70;;;16.10;99.90;;;;;;5034357;28;20225;-72
2022/08/16 04:57:30;;;;;;;6.68;3.88;;;16.20;99.90;;;;;;5034795;28;20217;-72
2022/08/16 04:59:55;;;;;;;4.15;3.60;;;16.30;99.90;;;;;;5035102;28;20171;-72
2022/08/16 05:02:26;;;;;;;4.80;4.03;;;16.30;99.90;;;;;;5033972;28;20330;-72
2022/08/16 05:04:52;;;;;;;9.85;3.72;;;16.30;99.90;;;;;;5033554;28;20229;-72
2022/08/16 05:07:17;;;;;;;3.95;3.42;;;16.50;99.90;;;;;;5033333;28;20187;-72
2022/08/16 05:09:43;;;;;;;8.68;3.90;;;16.50;99.90;;;;;;5034491;28;20614;-72
2022/08/16 05:12:08;;;;;;;6.35;3.92;;;16.50;99.90;;;;;;5034350;28;20206;-72
2022/08/16 05:14:34;;;;;;;6.70;3.70;;;16.70;99.90;;;;;;5034056;28;20642;-72
2022/08/16 05:16:59;;;;;;;10.90;4.00;;;16.80;99.90;;;;;;5033393;28;20183;-72
2022/08/16 05:19:42;;;;;;;8.90;3.65;;;16.80;99.90;;;;;;5033095;28;20186;-72
2022/08/16 05:22:08;;;;;;;10.35;4.05;;;16.90;99.90;;;;;;5034395;28;20218;-72
2022/08/16 05:24:33;;;;;;;6.65;3.90;;;16.90;99.90;;;;;;5033002;28;20179;-72
2022/08/16 05:26:59;;;;;;;7.30;3.28;;;17.00;99.90;;;;;;5032892;28;20267;-72
2022/08/16 05:29:25;;;;;;;5.35;3.80;;;17.10;99.90;;;;;;5033337;28;20660;-72
2022/08/16 05:31:50;;;;;;;6.13;3.45;;;17.30;99.90;;;;;;5032907;28;20585;-72
2022/08/16 05:34:20;;;;;;;6.07;3.75;;;17.40;99.90;;;;;;5032929;28;20313;-72
2022/08/16 05:36:48;;;;;;;5.55;4.25;;;17.50;99.90;;;;;;5032823;28;20182;-72
2022/08/16 05:39:14;;;;;;;6.47;3.78;;;17.60;99.90;;;;;;5032805;28;20667;-72
2022/08/16 05:41:39;;;;;;;5.35;4.00;;;17.80;99.90;;;;;;5032663;28;20341;-72
2022/08/16 05:44:05;;;;;;;5.53;3.80;;;17.90;99.90;;;;;;5034185;28;20179;-72
2022/08/16 05:46:31;;;;;;;9.75;3.90;;;18.00;99.90;;;;;;5033558;28;20187;-72
2022/08/16 05:49:00;;;;;;;9.15;4.50;;;18.10;99.90;;;;;;5032932;28;20718;-72
2022/08/16 05:51:26;;;;;;;8.85;4.45;;;18.20;99.90;;;;;;5032722;28;20745;-75
2022/08/16 05:53:51;;;;;;;9.50;4.00;;;18.40;99.90;;;;;;5032620;28;20202;-72
2022/08/16 05:56:17;;;;;;;8.75;3.97;;;18.40;99.90;;;;;;5032550;28;20658;-72
2022/08/16 05:58:43;;;;;;;4.78;4.22;;;18.50;99.90;;;;;;5032845;28;20175;-72
2022/08/16 06:01:08;;;;;;;6.97;4.10;;;18.50;99.90;;;;;;5032547;28;20199;-72
2022/08/16 06:03:34;;;;;;;12.65;4.05;;;18.60;99.90;;;;;;5032550;28;20649;-72
2022/08/16 06:06:00;;;;;;;8.25;3.67;;;18.70;99.90;;;;;;5032665;28;20209;-72
2022/08/16 06:08:26;;;;;;;5.03;3.30;;;18.80;99.90;;;;;;5032337;28;20183;-72
2022/08/16 06:10:52;;;;;;;4.80;3.45;;;18.90;99.90;;;;;;5033476;28;20281;-72
2022/08/16 06:13:17;;;;;;;5.75;3.72;;;18.90;99.90;;;;;;5031228;28;20206;-72
2022/08/16 06:15:43;;;;;;;7.25;4.15;;;18.90;99.90;;;;;;5032294;28;20313;-72
2022/08/16 06:18:09;;;;;;;10.70;3.65;;;18.90;99.90;;;;;;5030888;28;20187;-72
2022/08/16 06:20:34;;;;;;;6.32;3.53;;;19.00;99.90;;;;;;5031117;28;20224;-72
2022/08/16 06:23:00;;;;;;;4.65;3.72;;;19.20;99.90;;;;;;5032199;28;20233;-72
2022/08/16 06:25:27;;;;;;;4.72;3.30;;;19.20;99.90;;;;;;5032966;28;20274;-72
2022/08/16 06:27:53;;;;;;;6.15;3.60;;;19.30;99.90;;;;;;5033285;28;20175;-72
2022/08/16 06:30:19;;;;;;;7.35;3.63;;;19.40;99.90;;;;;;5033380;28;20203;-72
2022/08/16 06:32:46;;;;;;;7.07;3.30;;;19.40;99.90;;;;;;5035013;28;20232;-72
2022/08/16 06:35:12;;;;;;;3.33;3.03;;;19.60;99.90;;;;;;5037282;28;20206;-72
2022/08/16 06:37:39;;;;;;;3.92;3.53;;;19.70;99.90;;;;;;5037433;28;20179;-72
2022/08/16 06:40:06;;;;;;;5.10;3.20;;;19.80;99.90;;;;;;5037299;28;20186;-72
2022/08/16 06:42:32;;;;;;;3.78;3.38;;;19.90;99.90;;;;;;5037203;28;20684;-72
2022/08/16 06:44:57;;;;;;;5.05;3.50;;;19.90;99.90;;;;;;5035984;28;20175;-72
2022/08/16 06:47:23;;;;;;;5.13;3.78;;;20.00;99.90;;;;;;5036278;28;20179;-72
2022/08/16 06:49:49;;;;;;;6.45;3.60;;;20.10;99.90;;;;;;5036218;28;20183;-72
2022/08/16 06:52:15;;;;;;;3.40;3.10;;;20.20;99.90;;;;;;5035747;28;20241;-72
2022/08/16 06:54:41;;;;;;;8.18;3.63;;;20.30;99.90;;;;;;5036747;28;20183;-72
2022/08/16 06:57:09;;;;;;;4.15;3.70;;;20.50;99.90;;;;;;5035816;28;20179;-72
2022/08/16 06:59:36;;;;;;;3.83;3.15;;;20.60;99.90;;;;;;5037232;28;20664;-72
2022/08/16 07:02:02;;;;;;;4.43;3.42;;;20.70;99.90;;;;;;5035512;28;20214;-72
2022/08/16 07:04:27;;;;;;;3.63;2.97;;;20.90;99.90;;;;;;5035729;28;20186;-72
2022/08/16 07:06:54;;;;;;;7.88;4.00;;;21.00;99.90;;;;;;5035679;28;20175;-72
2022/08/16 07:09:20;;;;;;;3.30;3.00;;;21.10;99.90;;;;;;5036960;28;20183;-72
2022/08/16 07:11:49;;;;;;;3.55;3.25;;;21.20;99.90;;;;;;5035801;28;20203;-72
2022/08/16 07:14:15;;;;;;;5.57;3.10;;;21.20;99.90;;;;;;5036860;28;20171;-72
2022/08/16 07:16:40;;;;;;;7.82;3.17;;;21.40;99.90;;;;;;5036028;28;20205;-72
2022/08/16 07:19:07;;;;;;;4.75;3.22;;;21.40;99.90;;;;;;5035756;28;20578;-72
2022/08/16 07:21:35;;;;;;;13.50;3.95;;;21.60;99.90;;;;;;5035597;28;20179;-73
2022/08/16 07:24:02;;;;;;;7.75;3.63;;;21.60;99.90;;;;;;5035654;28;20201;-72
2022/08/16 07:26:28;;;;;;;4.32;3.10;;;21.80;99.90;;;;;;5035250;28;20229;-72
2022/08/16 07:28:54;;;;;;;3.50;3.20;;;21.90;99.90;;;;;;5035251;28;20185;-72
2022/08/16 07:31:20;;;;;;;5.18;3.08;;;21.90;99.90;;;;;;5035533;28;20273;-72
2022/08/16 07:33:46;;;;;;;5.70;3.17;;;22.00;99.90;;;;;;5035294;28;20735;-72
2022/08/16 07:36:13;;;;;;;6.57;3.40;;;22.20;99.90;;;;;;5035902;28;20187;-72
2022/08/16 07:38:39;;;;;;;6.97;3.42;;;22.40;99.90;;;;;;5035753;28;20186;-73
2022/08/16 07:41:05;;;;;;;4.10;3.40;;;22.40;99.90;;;;;;5038419;28;20262;-72
2022/08/16 07:43:31;;;;;;;6.05;3.35;;;22.50;99.90;;;;;;5046897;28;20213;-73
2022/08/16 07:45:58;;;;;;;3.67;3.38;;;22.70;99.90;;;;;;5044980;28;20171;-73
2022/08/16 07:48:24;;;;;;;3.45;3.15;;;22.80;99.60;;;;;;5044425;28;20171;-73
2022/08/16 07:50:50;;;;;;;4.60;3.30;;;22.90;99.40;;;;;;5043115;28;20638;-73
2022/08/16 07:53:17;;;;;;;4.80;3.45;;;23.10;99.20;;;;;;5045030;28;20209;-73
2022/08/16 07:55:42;;;;;;;4.55;3.28;;;23.40;98.90;;;;;;5044511;28;20181;-73
2022/08/16 07:58:08;;;;;;;9.98;3.70;;;23.70;97.70;;;;;;5046802;28;20178;-73
2022/08/16 08:00:34;;;;;;;6.95;3.45;;;23.70;96.90;;;;;;5049133;28;20182;-73
2022/08/16 08:03:00;;;;;;;5.97;3.53;;;23.80;96.50;;;;;;5054272;28;20310;-73
2022/08/16 08:05:27;;;;;;;8.32;3.63;;;23.80;96.40;;;;;;5054468;28;20582;-73
2022/08/16 08:07:54;;;;;;;3.50;3.20;;;23.90;96.10;;;;;;5054751;28;20629;-73
2022/08/16 08:10:22;;;;;;;6.07;3.40;;;24.20;95.40;;;;;;5055210;28;20181;-73
2022/08/16 08:12:49;;;;;;;4.63;3.30;;;24.40;95.60;;;;;;5054615;28;20198;-73
2022/08/16 08:15:16;;;;;;;10.85;4.18;;;24.60;94.60;;;;;;5054719;28;20273;-73
2022/08/16 08:17:42;;;;;;;8.50;4.07;;;24.70;94.80;;;;;;5055471;28;20182;-73
2022/08/16 08:20:13;;;;;;;8.20;3.30;;;25.00;93.50;;;;;;5055765;28;20181;-73
2022/08/16 08:22:39;;;;;;;6.05;3.35;;;25.10;93.00;;;;;;5054085;28;20214;-73
2022/08/16 08:25:06;;;;;;;3.25;3.05;;;25.30;92.70;;;;;;5054447;28;20265;-73
2022/08/16 08:27:31;;;;;;;4.53;3.33;;;25.40;92.10;;;;;;5054935;28;20537;-73
2022/08/16 08:29:57;;;;;;;5.15;3.10;;;25.60;91.40;;;;;;5054376;28;20170;-73
2022/08/16 08:32:27;;;;;;;7.82;3.30;;;25.60;91.10;;;;;;5053956;28;20198;-73
2022/08/16 08:34:57;;;;;;;4.03;3.05;;;25.60;90.30;;;;;;5054002;28;20185;-73
2022/08/16 08:37:24;;;;;;;3.25;2.90;;;25.70;89.70;;;;;;5054000;28;20178;-73
2022/08/16 08:39:50;;;;;;;7.03;3.22;;;25.60;89.70;;;;;;5054630;28;20189;-73
2022/08/16 08:42:15;;;;;;;4.22;2.92;;;25.40;89.60;;;;;;5053701;28;20202;-73
2022/08/16 08:44:41;;;;;;;3.40;3.10;;;25.10;90.30;;;;;;5053795;28;20171;-73
2022/08/16 08:47:07;;;;;;;3.65;3.00;;;24.90;91.00;;;;;;5053980;28;20185;-73
2022/08/16 08:49:34;;;;;;;4.10;3.20;;;24.70;91.80;;;;;;5053891;28;20178;-73
2022/08/16 08:52:01;;;;;;;9.68;3.88;;;24.30;92.10;;;;;;5053767;28;20222;-73
2022/08/16 08:54:26;;;;;;;3.33;3.03;;;24.30;92.60;;;;;;5054352;28;20174;-73
2022/08/16 08:56:53;;;;;;;3.50;3.20;;;24.10;92.60;;;;;;5054650;28;20502;-73
2022/08/16 08:59:19;;;;;;;7.43;3.30;;;23.70;93.10;;;;;;5053467;28;20231;-73
2022/08/16 09:01:46;;;;;;;7.88;3.67;;;23.40;93.40;;;;;;5053265;28;20181;-72
2022/08/16 09:04:12;;;;;;;4.38;3.60;;;23.20;94.10;;;;;;5054510;28;20166;-72
2022/08/16 09:06:38;;;;;;;5.63;3.58;;;23.60;93.70;;;;;;5054781;28;20180;-72
2022/08/16 09:09:05;;;;;;;4.30;3.30;;;24.00;93.20;;;;;;5054181;28;20265;-73
2022/08/16 09:11:31;;;;;;;6.45;3.25;;;24.30;92.50;;;;;;5053420;28;20186;-73
2022/08/16 09:13:56;;;;;;;6.85;3.75;;;24.60;92.20;;;;;;5054786;28;20219;-73
2022/08/16 09:16:22;;;;;;;4.60;3.30;;;24.80;90.80;;;;;;5053421;28;20170;-73
2022/08/16 09:18:48;;;;;;;4.00;3.15;;;24.90;91.40;;;;;;5053515;28;20185;-73
2022/08/16 09:21:15;;;;;;;6.90;3.20;;;24.70;90.70;;;;;;5054089;28;20181;-73
2022/08/16 09:23:41;;;;;;;3.75;3.30;;;24.40;91.20;;;;;;5054707;28;20202;-73
2022/08/16 09:26:09;;;;;;;4.38;3.30;;;24.40;90.90;;;;;;5052980;28;20679;-72
2022/08/16 09:28:37;;;;;;;3.63;2.97;;;24.60;90.80;;;;;;5052894;28;20251;-72
2022/08/16 09:31:04;;;;;;;6.10;3.28;;;24.70;90.80;;;;;;5053549;28;20265;-73
2022/08/16 09:33:31;;;;;;;18.05;3.03;;;24.70;90.50;;;;;;5054010;28;20225;-73
2022/08/16 09:35:56;;;;;;;5.15;2.80;;;24.60;90.00;;;;;;5053228;28;20181;-73
2022/08/16 09:38:23;;;;;;;11.20;3.00;;;24.70;90.30;;;;;;5052718;28;20265;-73
2022/08/16 09:40:49;;;;;;;6.75;2.90;;;25.20;88.60;;;;;;5052750;28;20181;-73
2022/08/16 09:43:18;;;;;;;5.35;2.58;;;25.70;85.70;;;;;;5052461;28;20216;-73
2022/08/16 09:45:45;;;;;;;2.58;2.25;;;26.30;83.70;;;;;;5052956;28;20274;-73
2022/08/16 09:48:13;;;;;;;5.57;2.85;;;26.70;81.00;;;;;;5054314;28;20182;-73
2022/08/16 09:50:42;;;;;;;3.83;2.70;;;26.60;81.60;;;;;;5052393;28;20173;-73
2022/08/16 09:53:12;;;;;;;3.67;2.58;;;26.60;80.60;;;;;;5052887;28;20210;-73
2022/08/16 09:55:38;;;;;;;3.42;2.25;;;26.20;79.80;;;;;;5053624;28;20260;-73
2022/08/16 09:58:04;;;;;;;5.28;2.63;;;25.80;80.90;;;;;;5052306;28;20589;-73
2022/08/16 10:00:30;;;;;;;3.35;2.38;;;25.40;82.80;;;;;;5052628;28;20182;-73
2022/08/16 10:02:57;;;;;;;3.70;2.90;;;25.10;84.00;;;;;;5052590;28;20210;-73
2022/08/16 10:05:23;;;;;;;3.83;2.83;;;24.90;84.00;;;;;;5053005;28;20227;-73
2022/08/16 10:07:52;;;;;;;2.88;2.58;;;24.80;84.40;;;;;;5053709;28;20170;-73
2022/08/16 10:10:22;;;;;;;4.43;2.70;;;24.90;85.50;;;;;;5053636;28;20166;-73
2022/08/16 10:15:34;;;;;;;5.00;2.67;;;25.50;82.80;;;;;;5053957;28;20169;-73
2022/08/16 10:18:01;;;;;;;3.03;2.72;;;26.00;84.80;;;;;;5053254;28;20209;-73
2022/08/16 10:20:28;;;;;;;5.45;3.00;;;26.40;84.30;;;;;;5052174;28;20185;-73
2022/08/16 10:22:54;;;;;;;4.25;2.78;;;26.60;80.40;;;;;;5053466;28;20325;-73
2022/08/16 10:25:20;;;;;;;4.18;2.72;;;26.60;79.20;;;;;;5052089;28;20178;-73
2022/08/16 10:27:47;;;;;;;3.05;2.58;;;26.60;79.50;;;;;;5053402;28;20177;-73
2022/08/16 10:30:14;;;;;;;4.82;2.72;;;26.80;79.50;;;;;;5051950;28;20550;-73
2022/08/16 10:32:40;;;;;;;3.22;2.92;;;26.90;78.30;;;;;;5052524;28;20198;-73
2022/08/16 10:35:06;;;;;;;2.55;2.35;;;26.80;76.30;;;;;;5052032;28;20207;-73
2022/08/16 10:37:32;;;;;;;5.55;3.03;;;26.70;77.90;;;;;;5051995;28;20174;-73
2022/08/16 10:39:58;;;;;;;3.38;2.70;;;26.50;77.10;;;;;;5051937;28;20186;-73
2022/08/16 10:42:24;;;;;;;3.00;2.67;;;26.10;78.60;;;;;;5051878;28;20696;-73
2022/08/16 10:44:49;;;;;;;4.90;3.00;;;25.70;80.00;;;;;;5052827;28;20170;-73
2022/08/16 10:47:16;;;;;;;3.85;2.92;;;25.60;80.80;;;;;;5052424;28;20576;-73
2022/08/16 10:49:42;;;;;;;4.55;3.10;;;25.40;81.50;;;;;;5051955;28;20228;-73
2022/08/16 10:52:07;;;;;;;3.65;3.17;;;25.30;82.00;;;;;;5052143;28;20222;-73
2022/08/16 10:54:33;;;;;;;3.05;2.80;;;25.30;82.00;;;;;;5052119;28;20174;-73
2022/08/16 10:57:01;;;;;;;6.07;3.00;;;25.40;82.80;;;;;;5053199;28;20206;-73
2022/08/16 10:59:30;;;;;;;3.00;2.80;;;25.40;82.30;;;;;;5051804;28;20599;-73
2022/08/16 11:01:56;;;;;;;5.68;3.13;;;25.30;82.10;;;;;;5051937;28;20796;-73
2022/08/16 11:04:22;;;;;;;3.72;2.90;;;25.30;81.60;;;;;;5052102;28;20311;-73
2022/08/16 11:06:47;;;;;;;2.92;2.63;;;25.40;81.70;;;;;;5052466;28;20205;-73
2022/08/16 11:09:13;;;;;;;3.22;2.85;;;25.40;81.50;;;;;;5051764;28;20668;-73
2022/08/16 11:11:38;;;;;;;3.45;3.15;;;25.50;82.40;;;;;;5051646;28;20181;-73
2022/08/16 11:14:04;;;;;;;3.28;2.92;;;25.60;82.10;;;;;;5051969;28;20181;-73
2022/08/16 11:16:30;;;;;;;5.50;3.20;;;25.70;80.40;;;;;;5051554;28;20189;-73
2022/08/16 11:18:56;;;;;;;4.53;3.17;;;25.90;80.80;;;;;;5055458;28;20185;-73
2022/08/16 11:21:24;;;;;;;5.88;3.42;;;26.10;78.70;;;;;;5056175;28;20181;-73
2022/08/16 11:23:52;;;;;;;3.50;3.20;;;26.40;78.00;;;;;;5055441;28;20202;-73
2022/08/16 11:26:17;;;;;;;4.63;3.35;;;26.60;77.60;;;;;;5057250;28;20220;-73
2022/08/16 11:28:43;;;;;;;5.25;3.13;;;26.70;77.00;;;;;;5056083;28;20669;-73
2022/08/16 11:31:09;;;;;;;4.10;2.80;;;27.20;75.30;;;;;;5056020;28;20645;-73
2022/08/16 11:33:34;;;;;;;7.07;2.90;;;27.40;74.30;;;;;;5055144;28;20217;-73
2022/08/16 11:36:01;;;;;;;8.27;2.80;;;27.70;73.20;;;;;;5055166;28;20178;-76
2022/08/16 11:38:27;;;;;;;3.80;2.58;;;28.10;73.40;;;;;;5055390;28;20174;-73
2022/08/16 11:40:58;;;;;;;3.97;2.70;;;28.30;70.80;;;;;;5055942;28;20178;-73
2022/08/16 11:43:31;;;;;;;5.68;2.88;;;28.30;69.20;;;;;;5055442;28;20237;-73
2022/08/16 11:45:58;;;;;;;3.83;2.70;;;28.00;68.70;;;;;;5055339;28;20174;-73
2022/08/16 11:48:26;;;;;;;3.85;2.78;;;27.70;71.70;;;;;;5055837;28;20184;-77
2022/08/16 11:50:53;;;;;;;3.28;2.70;;;27.20;71.30;;;;;;5054781;28;20179;-73
2022/08/16 11:53:20;;;;;;;3.10;2.80;;;26.80;71.00;;;;;;5055571;28;20221;-73
2022/08/16 11:55:47;;;;;;;3.65;2.85;;;26.50;73.20;;;;;;5054817;28;20254;-73
2022/08/16 11:58:13;;;;;;;4.45;2.90;;;26.20;74.40;;;;;;5055026;28;20178;-73
2022/08/16 12:00:41;;;;;;;2.78;2.55;;;26.20;75.70;;;;;;5055153;28;20178;-73
2022/08/16 12:03:06;;;;;;;4.80;3.35;;;26.30;76.00;;;;;;5054947;28;20209;-73
2022/08/16 12:05:34;;;;;;;6.15;2.90;;;26.50;73.90;;;;;;5055397;28;20170;-73
2022/08/16 12:08:00;;;;;;;3.58;2.72;;;26.70;72.80;;;;;;5054757;28;20178;-73
2022/08/16 12:10:26;;;;;;;4.43;2.58;;;26.90;72.90;;;;;;5054778;28;20182;-73
2022/08/16 12:12:52;;;;;;;2.38;2.22;;;27.00;72.50;;;;;;5054408;28;20198;-73
2022/08/16 12:15:19;;;;;;;2.72;2.50;;;27.00;70.90;;;;;;5055245;28;20179;-73
2022/08/16 12:17:45;;;;;;;2.70;2.50;;;27.10;71.80;;;;;;5054344;28;20182;-73
2022/08/16 12:20:19;;;;;;;4.88;2.67;;;27.20;70.80;;;;;;5054562;28;20280;-73
2022/08/16 12:22:45;;;;;;;3.65;2.30;;;27.30;69.10;;;;;;5054581;28;20209;-73
2022/08/16 12:25:14;;;;;;;4.53;2.30;;;27.40;67.40;;;;;;5054147;28;20182;-73
2022/08/16 12:27:43;;;;;;;2.70;2.50;;;27.40;67.60;;;;;;5054423;28;20281;-73
2022/08/16 12:30:10;;;;;;;4.03;2.72;;;27.10;68.40;;;;;;5054679;28;20174;-73
2022/08/16 12:32:36;;;;;;;3.10;2.80;;;26.90;69.00;;;;;;5054417;28;20198;-73
2022/08/16 12:35:05;;;;;;;3.08;2.40;;;26.70;70.20;;;;;;5054826;28;20170;-73
2022/08/16 12:37:32;;;;;;;4.07;2.60;;;26.80;71.10;;;;;;5053914;28;20183;-73
2022/08/16 12:39:58;;;;;;;3.97;2.88;;;26.80;69.20;;;;;;5053693;28;20711;-73
2022/08/16 12:42:25;;;;;;;7.40;2.70;;;26.70;70.20;;;;;;5055506;28;20202;-73
2022/08/16 12:45:07;;;;;;;4.28;2.90;;;26.80;69.80;;;;;;5054117;28;20678;-73